GB-0594 weather

Public forecast

Using degrees Celsius for public forecast. Weather courtesy of forecast.io.

Closest aviation weather report (METAR) to Barcombe-North Airstrip

Closest report is Shoreham Airport, 13.8 nm (25.6 km) WSW. Retrieved 2020/08/09 07:50 UTC (13 minutes ago):

EGKA 090750Z 36015KT CAVOK 21/16 Q1017

Closest aviation forecast (TAF) to Barcombe-North Airstrip

Forecast is more than 12 hours old.

Closest forecast is Shoreham Airport, 13.8 nm (25.6 km) WSW. Retrieved 2016/03/02 12:00 UTC (4 years ago):

TAF EGKA 021104Z 0212/0221 25015G25KT 9999 SCT020 TEMPO 0212/0216 25025G38KT 5000 SHRA BKN012CB PROB30 TEMPO 0212/0215 2500 +SHGS +SHRASN TEMPO 0216/0221 29025G35KT TEMPO 0218/0221 BKN014